createdAt,value
2019-01-18T00:00:01.394Z,48.3
2019-01-18T00:01:01.364Z,42.3
2019-01-18T00:02:01.371Z,24.3
2019-01-18T00:03:01.360Z,45.3
2019-01-18T00:04:01.382Z,48.3
2019-01-18T00:05:01.412Z,39.3
2019-01-18T00:06:01.343Z,39.3
2019-01-18T00:07:01.297Z,42.3
2019-01-18T00:08:01.349Z,21.3
2019-01-18T00:09:01.284Z,39.3
2019-01-18T00:10:01.398Z,60.3
2019-01-18T00:11:01.363Z,36.3
2019-01-18T00:12:01.349Z,45.3
2019-01-18T00:13:01.352Z,48.3
2019-01-18T00:14:01.392Z,48.3
2019-01-18T00:15:01.344Z,48.3
2019-01-18T00:16:01.320Z,60.3
2019-01-18T00:17:01.326Z,51.3
2019-01-18T00:18:01.347Z,51.3
2019-01-18T00:19:01.393Z,24.3
2019-01-18T00:20:01.351Z,36.3
2019-01-18T00:21:01.342Z,54.3
2019-01-18T00:22:02.693Z,30.3
2019-01-18T00:23:01.295Z,48.3
2019-01-18T00:24:01.330Z,48.3
2019-01-18T00:25:01.304Z,42.3
2019-01-18T00:26:01.347Z,42.3
2019-01-18T00:27:01.349Z,30.3
2019-01-18T00:28:01.332Z,21.3
2019-01-18T00:29:01.326Z,36.3
2019-01-18T00:30:01.383Z,33.3
2019-01-18T00:31:01.351Z,48.3
2019-01-18T00:32:01.338Z,18.3
2019-01-18T00:33:01.328Z,24.3
2019-01-18T00:34:01.338Z,18.3
2019-01-18T00:35:01.445Z,36.3
2019-01-18T00:36:01.275Z,18.3
2019-01-18T00:37:01.288Z,15.4
2019-01-18T00:38:01.342Z,18.3
2019-01-18T00:39:01.346Z,45.3
2019-01-18T00:40:01.368Z,30.3
2019-01-18T00:41:01.329Z,18.3
2019-01-18T00:42:01.341Z,54.3
2019-01-18T00:43:01.393Z,21.3
2019-01-18T00:44:01.319Z,27.3
2019-01-18T00:45:01.415Z,36.3
2019-01-18T00:46:01.331Z,51.3
2019-01-18T00:47:01.291Z,42.3
2019-01-18T00:48:01.387Z,48.3
2019-01-18T00:49:01.344Z,51.3
2019-01-18T00:50:01.502Z,24.3
2019-01-18T00:51:01.312Z,54.3
2019-01-18T00:52:01.326Z,60.3
2019-01-18T00:53:01.373Z,48.3
2019-01-18T00:54:01.330Z,48.3
2019-01-18T00:55:01.332Z,51.3
2019-01-18T00:56:01.329Z,63.4
2019-01-18T00:57:01.331Z,51.3
2019-01-18T00:58:01.348Z,66.4
2019-01-18T00:59:01.322Z,30.3
2019-01-18T01:00:01.381Z,63.4
2019-01-18T01:01:01.331Z,60.3
2019-01-18T01:02:01.313Z,51.3
2019-01-18T01:03:01.396Z,45.3
2019-01-18T01:04:01.270Z,42.3
2019-01-18T01:05:01.330Z,57.3
2019-01-18T01:06:01.316Z,42.3
2019-01-18T01:07:01.307Z,63.4
2019-01-18T01:08:01.377Z,48.3
2019-01-18T01:09:01.312Z,51.3
2019-01-18T01:10:01.344Z,39.3
2019-01-18T01:11:01.381Z,57.3
2019-01-18T01:12:01.350Z,45.3
2019-01-18T01:13:01.316Z,45.3
2019-01-18T01:14:01.288Z,45.3
2019-01-18T01:15:01.394Z,54.3
2019-01-18T01:16:01.358Z,54.3
2019-01-18T01:17:01.314Z,60.3
2019-01-18T01:18:01.316Z,81.4
2019-01-18T01:19:01.316Z,63.4
2019-01-18T01:20:01.344Z,63.4
2019-01-18T01:21:01.312Z,51.3
2019-01-18T01:22:01.308Z,60.3
2019-01-18T01:23:01.384Z,27.3
2019-01-18T01:24:01.301Z,36.3
2019-01-18T01:25:01.331Z,51.3
2019-01-18T01:26:01.252Z,54.3
2019-01-18T01:27:01.366Z,54.3
2019-01-18T01:28:01.315Z,66.4
2019-01-18T01:29:01.312Z,63.4
2019-01-18T01:30:01.363Z,48.3
2019-01-18T01:31:01.261Z,72.4
2019-01-18T01:32:01.355Z,60.3
2019-01-18T01:33:01.320Z,57.3
2019-01-18T01:34:01.360Z,54.3
2019-01-18T01:35:01.312Z,69.4
2019-01-18T01:36:01.337Z,51.3
2019-01-18T01:37:01.249Z,57.3
2019-01-18T01:38:01.457Z,48.3
2019-01-18T01:39:01.305Z,54.3
2019-01-18T01:40:01.346Z,42.3
2019-01-18T01:41:01.301Z,66.4
2019-01-18T01:42:01.251Z,54.3
2019-01-18T01:43:01.350Z,60.3
2019-01-18T01:44:01.292Z,60.3
2019-01-18T01:45:01.483Z,63.4
2019-01-18T01:46:01.310Z,54.3
2019-01-18T01:47:01.244Z,48.3
2019-01-18T01:48:01.337Z,60.3
2019-01-18T01:49:01.284Z,66.4
2019-01-18T01:50:01.303Z,69.4
2019-01-18T01:51:01.289Z,60.3
2019-01-18T01:52:01.377Z,60.3
2019-01-18T01:53:01.285Z,57.3
2019-01-18T01:54:01.301Z,48.3
2019-01-18T01:55:01.427Z,54.3
2019-01-18T01:56:01.279Z,36.3
2019-01-18T01:57:01.381Z,51.3
2019-01-18T01:58:01.277Z,54.3
2019-01-18T01:59:01.328Z,54.3
2019-01-18T02:00:01.309Z,51.3
2019-01-18T02:01:01.357Z,57.3
2019-01-18T02:02:01.318Z,45.3
2019-01-18T02:03:01.259Z,48.3
2019-01-18T02:04:01.234Z,42.3
2019-01-18T02:05:01.297Z,60.3
2019-01-18T02:06:01.337Z,33.3
2019-01-18T02:07:01.265Z,51.3
2019-01-18T02:08:01.281Z,48.3
2019-01-18T02:09:01.304Z,45.3
2019-01-18T02:10:01.384Z,33.3
2019-01-18T02:11:01.357Z,51.3
2019-01-18T02:12:01.280Z,45.3
2019-01-18T02:13:01.286Z,33.3
2019-01-18T02:14:01.284Z,39.3
2019-01-18T02:15:01.310Z,39.3
2019-01-18T02:16:01.304Z,33.3
2019-01-18T02:17:01.297Z,42.3
2019-01-18T02:18:01.291Z,48.3
2019-01-18T02:19:01.361Z,54.3
2019-01-18T02:20:01.239Z,51.3
2019-01-18T02:21:01.302Z,48.3
2019-01-18T02:22:01.345Z,42.3
2019-01-18T02:23:01.299Z,36.3
2019-01-18T02:24:01.286Z,42.3
2019-01-18T02:25:01.280Z,33.3
2019-01-18T02:26:01.321Z,39.3
2019-01-18T02:27:01.275Z,36.3
2019-01-18T02:28:01.371Z,42.3
2019-01-18T02:29:01.284Z,57.3
2019-01-18T02:30:01.440Z,45.3
2019-01-18T02:31:01.227Z,45.3
2019-01-18T02:32:01.279Z,45.3
2019-01-18T02:33:01.317Z,39.3
2019-01-18T02:34:01.318Z,60.3
2019-01-18T02:35:01.335Z,45.3
2019-01-18T02:36:01.227Z,51.3
2019-01-18T02:37:01.357Z,48.3
2019-01-18T02:38:01.312Z,48.3
2019-01-18T02:39:01.271Z,36.3
2019-01-18T02:40:01.486Z,42.3
2019-01-18T02:41:01.299Z,48.3
2019-01-18T02:42:01.250Z,60.3
2019-01-18T02:43:01.360Z,48.3
2019-01-18T02:44:01.328Z,60.3
2019-01-18T02:45:01.328Z,54.3
2019-01-18T02:46:01.339Z,63.4
2019-01-18T02:47:01.226Z,57.3
2019-01-18T02:48:01.277Z,60.3
2019-01-18T02:49:01.323Z,69.4
2019-01-18T02:50:01.462Z,66.4
2019-01-18T02:51:01.307Z,54.3
2019-01-18T02:52:01.222Z,72.4
2019-01-18T02:53:01.276Z,54.3
2019-01-18T02:54:01.300Z,45.3
2019-01-18T02:55:01.351Z,75.4
2019-01-18T02:56:01.227Z,54.3
2019-01-18T02:57:01.267Z,60.3
2019-01-18T02:58:01.299Z,60.3
2019-01-18T02:59:01.274Z,45.3
2019-01-18T03:00:07.225Z,48.3
2019-01-18T03:01:01.343Z,66.4
2019-01-18T03:02:01.252Z,66.4
2019-01-18T03:03:01.323Z,51.3
2019-01-18T03:04:01.216Z,51.3
2019-01-18T03:05:01.477Z,63.4
2019-01-18T03:06:01.278Z,66.4
2019-01-18T03:07:01.265Z,69.4
2019-01-18T03:08:01.340Z,60.3
2019-01-18T03:09:01.228Z,60.3
2019-01-18T03:10:01.310Z,60.3
2019-01-18T03:11:01.268Z,78.4
2019-01-18T03:12:01.264Z,75.4
2019-01-18T03:13:01.343Z,75.4
2019-01-18T03:14:01.208Z,63.4
2019-01-18T03:15:01.283Z,45.3
2019-01-18T03:16:01.326Z,60.3
2019-01-18T03:17:01.261Z,63.4
2019-01-18T03:18:01.275Z,75.4
2019-01-18T03:19:01.249Z,51.3
2019-01-18T03:20:01.425Z,63.4
2019-01-18T03:21:01.329Z,75.4
2019-01-18T03:22:01.258Z,63.4
2019-01-18T03:23:01.265Z,60.3
2019-01-18T03:24:01.296Z,78.4
2019-01-18T03:25:01.394Z,75.4
2019-01-18T03:26:01.202Z,66.4
2019-01-18T03:27:01.247Z,72.4
2019-01-18T03:28:01.350Z,66.4
2019-01-18T03:29:01.262Z,90.4
2019-01-18T03:30:01.488Z,66.4
2019-01-18T03:31:01.203Z,75.4
2019-01-18T03:32:01.310Z,75.4
2019-01-18T03:33:01.323Z,63.4
2019-01-18T03:34:01.283Z,81.4
2019-01-18T03:35:01.350Z,69.4
2019-01-18T03:36:01.230Z,66.4
2019-01-18T03:37:01.247Z,45.3
2019-01-18T03:38:01.270Z,60.3
2019-01-18T03:39:01.245Z,63.4
2019-01-18T03:40:01.354Z,72.4
2019-01-18T03:41:01.298Z,78.4
2019-01-18T03:42:01.190Z,63.4
2019-01-18T03:43:01.241Z,69.4
2019-01-18T03:44:01.237Z,75.4
2019-01-18T03:45:01.509Z,69.4
2019-01-18T03:46:01.302Z,69.4
2019-01-18T03:47:01.191Z,69.4
2019-01-18T03:48:01.227Z,60.3
2019-01-18T03:49:01.252Z,75.4
2019-01-18T03:50:01.461Z,57.3
2019-01-18T03:51:01.296Z,72.4
2019-01-18T03:52:01.234Z,66.4
2019-01-18T03:53:01.200Z,60.3
2019-01-18T03:54:01.244Z,75.4
2019-01-18T03:55:01.349Z,60.3
2019-01-18T03:56:01.314Z,66.4
2019-01-18T03:57:01.227Z,75.4
2019-01-18T03:58:01.296Z,75.4
2019-01-18T03:59:01.234Z,69.4
2019-01-18T04:00:01.432Z,81.4
2019-01-18T04:01:01.244Z,78.4
2019-01-18T04:02:01.235Z,84.4
2019-01-18T04:03:01.258Z,87.4
2019-01-18T04:04:01.215Z,102.5
2019-01-18T04:05:01.419Z,93.5
2019-01-18T04:06:01.246Z,81.4
2019-01-18T04:07:01.224Z,63.4
2019-01-18T04:08:01.256Z,69.4
2019-01-18T04:09:01.177Z,75.4
2019-01-18T04:10:01.371Z,72.4
2019-01-18T04:11:01.241Z,60.3
2019-01-18T04:12:01.280Z,63.4
2019-01-18T04:13:01.240Z,69.4
2019-01-18T04:14:01.259Z,69.4
2019-01-18T04:15:01.395Z,63.4
2019-01-18T04:16:01.227Z,66.4
2019-01-18T04:17:01.230Z,60.3
2019-01-18T04:18:01.282Z,54.3
2019-01-18T04:19:01.249Z,57.3
2019-01-18T04:20:01.352Z,63.4
2019-01-18T04:21:01.216Z,54.3
2019-01-18T04:22:01.292Z,60.3
2019-01-18T04:23:01.281Z,54.3
2019-01-18T04:24:01.222Z,57.3
2019-01-18T04:25:01.402Z,54.3
2019-01-18T04:26:01.296Z,63.4
2019-01-18T04:27:01.290Z,69.4
2019-01-18T04:28:01.256Z,54.3
2019-01-18T04:29:01.236Z,78.4
2019-01-18T04:30:01.519Z,75.4
2019-01-18T04:31:01.263Z,66.4
2019-01-18T04:32:01.218Z,78.4
2019-01-18T04:33:01.220Z,57.3
2019-01-18T04:34:01.886Z,72.4
2019-01-18T04:35:01.444Z,60.3
2019-01-18T04:36:01.179Z,69.4
2019-01-18T04:37:01.219Z,66.4
2019-01-18T04:38:01.222Z,75.4
2019-01-18T04:39:01.233Z,66.4
2019-01-18T04:40:01.440Z,69.4
2019-01-18T04:41:01.524Z,54.3
2019-01-18T04:42:01.223Z,66.4
2019-01-18T04:43:01.221Z,75.4
2019-01-18T04:44:01.306Z,57.3
2019-01-18T04:45:09.332Z,45.3
2019-01-18T04:46:09.257Z,63.4
2019-01-18T04:47:09.213Z,72.4
2019-01-18T04:48:09.252Z,69.4
2019-01-18T04:49:09.250Z,60.3
2019-01-18T04:50:09.309Z,66.4
2019-01-18T04:51:09.272Z,66.4
2019-01-18T04:52:09.275Z,57.3
2019-01-18T04:53:09.225Z,81.4
2019-01-18T04:54:09.229Z,54.3
2019-01-18T04:55:09.302Z,75.4
2019-01-18T04:56:09.296Z,63.4
2019-01-18T04:57:09.246Z,54.3
2019-01-18T04:58:09.196Z,57.3
2019-01-18T04:59:09.250Z,72.4
2019-01-18T05:00:09.227Z,48.3
2019-01-18T05:01:09.311Z,48.3
2019-01-18T05:02:09.296Z,63.4
2019-01-18T05:03:09.218Z,60.3
2019-01-18T05:04:09.225Z,54.3
2019-01-18T05:05:09.240Z,69.4
2019-01-18T05:06:09.308Z,57.3
2019-01-18T05:07:09.235Z,63.4
2019-01-18T05:08:09.254Z,81.4
2019-01-18T05:09:09.346Z,66.4
2019-01-18T05:10:09.231Z,69.4
2019-01-18T05:11:09.248Z,75.4
2019-01-18T05:12:09.230Z,57.3
2019-01-18T05:13:09.232Z,57.3
2019-01-18T05:14:09.251Z,51.3
2019-01-18T05:15:09.237Z,54.3
2019-01-18T05:16:09.290Z,48.3
2019-01-18T05:17:09.291Z,54.3
2019-01-18T05:18:09.309Z,57.3
2019-01-18T05:19:09.251Z,60.3
2019-01-18T05:20:09.192Z,57.3
2019-01-18T05:21:09.234Z,51.3
2019-01-18T05:22:09.320Z,60.3
2019-01-18T05:23:09.186Z,48.3
2019-01-18T05:24:09.261Z,42.3
2019-01-18T05:25:09.199Z,48.3
2019-01-18T05:26:09.234Z,33.3
2019-01-18T05:27:09.288Z,54.3
2019-01-18T05:28:09.216Z,42.3
2019-01-18T05:29:09.290Z,54.3
2019-01-18T05:30:09.189Z,39.3
2019-01-18T05:31:09.196Z,66.4
2019-01-18T05:32:09.182Z,60.3
2019-01-18T05:33:09.237Z,57.3
2019-01-18T05:34:09.322Z,42.3
2019-01-18T05:35:09.238Z,63.4
2019-01-18T05:36:09.234Z,51.3
2019-01-18T05:37:09.221Z,57.3
2019-01-18T05:38:09.240Z,54.3
2019-01-18T05:39:09.237Z,45.3
2019-01-18T05:40:09.220Z,60.3
2019-01-18T05:41:09.237Z,48.3
2019-01-18T05:42:09.208Z,45.3
2019-01-18T05:43:09.220Z,45.3
2019-01-18T05:44:09.280Z,42.3
2019-01-18T05:45:09.210Z,48.3
2019-01-18T05:46:09.294Z,45.3
2019-01-18T05:47:09.174Z,51.3
2019-01-18T05:48:09.279Z,39.3
2019-01-18T05:49:09.283Z,60.3
2019-01-18T05:50:09.218Z,54.3
2019-01-18T05:51:09.429Z,45.3
2019-01-18T05:52:09.173Z,42.3
2019-01-18T05:53:09.165Z,42.3
2019-01-18T05:54:09.234Z,39.3
2019-01-18T05:55:09.236Z,54.3
2019-01-18T05:56:09.285Z,39.3
2019-01-18T05:57:09.221Z,45.3
2019-01-18T05:58:09.188Z,57.3
2019-01-18T05:59:09.198Z,54.3
2019-01-18T06:00:09.227Z,42.3
2019-01-18T06:01:09.268Z,45.3
2019-01-18T06:02:09.288Z,39.3
2019-01-18T06:03:09.177Z,42.3
2019-01-18T06:04:10.228Z,60.3
2019-01-18T06:05:09.241Z,45.3
2019-01-18T06:06:09.268Z,48.3
2019-01-18T06:07:09.234Z,45.3
2019-01-18T06:08:10.290Z,45.3
2019-01-18T06:09:09.189Z,48.3
2019-01-18T06:10:09.205Z,51.3
2019-01-18T06:11:09.202Z,48.3
2019-01-18T06:12:09.211Z,33.3
2019-01-18T06:13:09.246Z,39.3
2019-01-18T06:14:09.171Z,45.3
2019-01-18T06:15:09.210Z,33.3
2019-01-18T06:16:09.208Z,57.3
2019-01-18T06:17:09.279Z,45.3
2019-01-18T06:18:09.191Z,42.3
2019-01-18T06:19:09.242Z,39.3
2019-01-18T06:20:09.206Z,33.3
2019-01-18T06:21:09.225Z,27.3
2019-01-18T06:22:09.194Z,39.3
2019-01-18T06:23:09.211Z,30.3
2019-01-18T06:24:09.259Z,36.3
2019-01-18T06:25:09.163Z,36.3
2019-01-18T06:26:09.195Z,27.3
2019-01-18T06:27:09.250Z,33.3
2019-01-18T06:28:09.296Z,36.3
2019-01-18T06:29:09.266Z,36.3
2019-01-18T06:30:09.158Z,27.3
2019-01-18T06:31:09.139Z,27.3
2019-01-18T06:32:09.200Z,24.3
2019-01-18T06:33:09.276Z,42.3
2019-01-18T06:34:09.208Z,24.3
2019-01-18T06:35:09.226Z,33.3
2019-01-18T06:36:09.155Z,30.3
2019-01-18T06:37:09.187Z,24.3
2019-01-18T06:38:09.282Z,27.3
2019-01-18T06:39:09.197Z,30.3
2019-01-18T06:40:09.197Z,36.3
2019-01-18T06:41:09.160Z,36.3
2019-01-18T06:42:09.193Z,24.3
2019-01-18T06:43:09.246Z,24.3
2019-01-18T06:44:09.186Z,27.3
2019-01-18T06:45:09.202Z,27.3
2019-01-18T06:46:09.261Z,21.3
2019-01-18T06:47:09.142Z,18.3
2019-01-18T06:48:09.295Z,21.3
2019-01-18T06:49:09.275Z,15.4
2019-01-18T06:50:09.258Z,18.3
2019-01-18T06:51:09.186Z,12.4
2019-01-18T06:52:09.144Z,15.4
2019-01-18T06:53:09.208Z,9.5
2019-01-18T06:54:09.263Z,12.4
2019-01-18T06:55:09.191Z,15.4
2019-01-18T06:56:09.191Z,6.6
2019-01-18T06:57:09.190Z,9.5
2019-01-18T06:58:09.187Z,3.9
2019-01-18T06:59:09.197Z,1.8
2019-01-18T07:00:09.270Z,6.6
2019-01-18T07:01:11.005Z,1.8
2019-01-18T07:02:09.175Z,9.5
2019-01-18T07:03:09.205Z,12.4
2019-01-18T07:04:09.174Z,0
2019-01-18T07:05:09.190Z,3.9
2019-01-18T07:06:09.183Z,3.9
2019-01-18T07:07:09.185Z,9.5
2019-01-18T07:08:09.217Z,3.9
2019-01-18T07:09:09.130Z,1.8
2019-01-18T07:10:09.178Z,0
2019-01-18T07:11:09.196Z,1.8
2019-01-18T07:12:09.193Z,1.8
2019-01-18T07:13:09.252Z,3.9
2019-01-18T07:14:09.122Z,6.6
2019-01-18T07:15:09.179Z,9.5
2019-01-18T07:16:09.179Z,9.5
2019-01-18T07:17:09.246Z,6.6
2019-01-18T07:18:09.192Z,18.3
2019-01-18T07:19:09.122Z,18.3
2019-01-18T07:20:09.171Z,21.3
2019-01-18T07:21:09.209Z,9.5
2019-01-18T07:22:09.235Z,3.9
2019-01-18T07:23:09.223Z,15.4
2019-01-18T07:24:09.158Z,15.4
2019-01-18T07:25:09.125Z,15.4
2019-01-18T07:26:09.237Z,9.5
2019-01-18T07:27:09.180Z,24.3
2019-01-18T07:28:09.180Z,18.3
2019-01-18T07:29:09.233Z,21.3
2019-01-18T07:30:09.209Z,18.3
2019-01-18T07:31:14.942Z,15.4
2019-01-18T07:32:09.177Z,15.4
2019-01-18T07:33:09.178Z,15.4
2019-01-18T07:34:09.167Z,12.4
2019-01-18T07:35:09.733Z,18.3
2019-01-18T07:36:09.159Z,15.4
2019-01-18T07:37:09.174Z,6.6
2019-01-18T07:38:09.172Z,1.8
2019-01-18T07:39:09.230Z,12.4
2019-01-18T07:40:09.169Z,3.9
2019-01-18T07:41:09.205Z,6.6
2019-01-18T07:42:09.117Z,12.4
2019-01-18T07:43:09.166Z,1.8
2019-01-18T07:44:09.237Z,6.6
2019-01-18T07:45:09.306Z,9.5
2019-01-18T07:46:09.153Z,6.6
2019-01-18T07:47:09.116Z,6.6
2019-01-18T07:48:09.197Z,9.5
2019-01-18T07:49:09.210Z,6.6
2019-01-18T07:50:09.249Z,6.6
2019-01-18T07:51:09.160Z,6.6
2019-01-18T07:52:09.127Z,6.6
2019-01-18T07:53:09.154Z,6.6
2019-01-18T07:54:09.238Z,9.5
2019-01-18T07:55:09.261Z,12.4
2019-01-18T07:56:09.158Z,9.5
2019-01-18T07:57:09.193Z,6.6
2019-01-18T07:58:09.113Z,21.3
2019-01-18T07:59:09.163Z,15.4
2019-01-18T08:00:09.232Z,21.3
2019-01-18T08:01:09.232Z,18.3
2019-01-18T08:02:09.176Z,24.3
2019-01-18T08:03:09.148Z,15.4
2019-01-18T08:04:12.138Z,15.4
2019-01-18T08:05:09.175Z,21.3
2019-01-18T08:06:09.179Z,21.3
2019-01-18T08:07:09.176Z,21.3
2019-01-18T08:08:09.121Z,21.3
2019-01-18T08:09:09.163Z,36.3
2019-01-18T08:10:09.170Z,21.3
2019-01-18T08:11:09.220Z,24.3
2019-01-18T08:12:09.164Z,21.3
2019-01-18T08:13:09.171Z,21.3
2019-01-18T08:14:09.105Z,21.3
2019-01-18T08:15:09.155Z,24.3
2019-01-18T08:16:09.228Z,21.3
2019-01-18T08:17:09.159Z,18.3
2019-01-18T08:18:09.140Z,21.3
2019-01-18T08:19:09.103Z,21.3
2019-01-18T08:20:09.122Z,18.3
2019-01-18T08:21:09.234Z,24.3
2019-01-18T08:22:09.219Z,21.3
2019-01-18T08:23:09.151Z,18.3
2019-01-18T08:24:09.124Z,15.4
2019-01-18T08:25:09.102Z,3.9
2019-01-18T08:26:09.231Z,15.4
2019-01-18T08:27:09.151Z,9.5
2019-01-18T08:28:09.132Z,3.9
2019-01-18T08:29:09.153Z,1.8
2019-01-18T08:30:09.095Z,6.6
2019-01-18T08:31:09.158Z,0
2019-01-18T08:32:09.244Z,0
2019-01-18T08:33:09.140Z,1.8
2019-01-18T08:34:09.164Z,3.9
2019-01-18T08:35:09.142Z,15.4
2019-01-18T08:36:09.150Z,12.4
2019-01-18T08:37:09.243Z,1.8
2019-01-18T08:38:09.215Z,15.4
2019-01-18T08:39:09.148Z,6.6
2019-01-18T08:40:09.148Z,3.9
2019-01-18T08:41:09.124Z,12.4
2019-01-18T08:42:09.203Z,15.4
2019-01-18T08:43:09.224Z,18.3
2019-01-18T08:44:09.157Z,15.4
2019-01-18T08:45:09.143Z,9.5
2019-01-18T08:46:09.151Z,9.5
2019-01-18T08:47:09.181Z,3.9
2019-01-18T08:48:09.149Z,9.5
2019-01-18T08:49:09.152Z,9.5
2019-01-18T08:50:09.214Z,12.4
2019-01-18T08:51:09.158Z,3.9
2019-01-18T08:52:09.089Z,6.6
2019-01-18T08:53:09.150Z,6.6
2019-01-18T08:54:09.205Z,9.5
2019-01-18T08:55:09.150Z,9.5
2019-01-18T08:56:09.141Z,6.6
2019-01-18T08:57:09.155Z,9.5
2019-01-18T08:58:09.107Z,1.8
2019-01-18T08:59:09.192Z,9.5
2019-01-18T09:00:09.177Z,12.4
2019-01-18T09:01:09.152Z,1.8
2019-01-18T09:02:09.147Z,6.6
2019-01-18T09:03:09.108Z,3.9
2019-01-18T09:04:09.328Z,6.6
2019-01-18T09:05:10.036Z,6.6
2019-01-18T09:06:09.155Z,3.9
2019-01-18T09:07:09.154Z,3.9
2019-01-18T09:08:09.099Z,3.9
2019-01-18T09:09:09.171Z,6.6
2019-01-18T09:10:09.122Z,9.5
2019-01-18T09:11:09.269Z,6.6
2019-01-18T09:12:09.143Z,6.6
2019-01-18T09:13:09.128Z,3.9
2019-01-18T09:14:09.103Z,9.5
2019-01-18T09:15:09.206Z,6.6
2019-01-18T09:16:09.193Z,12.4
2019-01-18T09:17:09.223Z,18.3
2019-01-18T09:18:09.135Z,24.3
2019-01-18T09:19:09.114Z,9.5
2019-01-18T09:20:09.213Z,3.9
2019-01-18T09:21:09.162Z,9.5
2019-01-18T09:22:09.127Z,1.8
2019-01-18T09:23:09.212Z,12.4
2019-01-18T09:24:09.140Z,12.4
2019-01-18T09:25:09.154Z,3.9
2019-01-18T09:26:09.215Z,3.9
2019-01-18T09:27:09.141Z,6.6
2019-01-18T09:28:09.155Z,21.3
2019-01-18T09:29:10.298Z,9.5
2019-01-18T09:30:09.099Z,12.4
2019-01-18T09:31:09.211Z,18.3
2019-01-18T09:32:09.160Z,1.8
2019-01-18T09:33:09.220Z,6.6
2019-01-18T09:34:09.135Z,3.9
2019-01-18T09:35:09.125Z,0
2019-01-18T09:36:09.177Z,6.6
2019-01-18T09:37:09.153Z,0
2019-01-18T09:38:09.204Z,3.9
2019-01-18T09:39:09.156Z,18.3
2019-01-18T09:40:09.168Z,3.9
2019-01-18T09:41:09.142Z,1.8
2019-01-18T09:42:09.239Z,3.9
2019-01-18T09:43:09.275Z,6.6
2019-01-18T09:44:09.139Z,1.8
2019-01-18T09:45:09.140Z,9.5
2019-01-18T09:46:09.165Z,12.4
2019-01-18T09:47:09.100Z,15.4
2019-01-18T09:48:09.200Z,12.4
2019-01-18T09:49:09.144Z,21.3
2019-01-18T09:50:09.139Z,15.4
2019-01-18T09:51:09.165Z,6.6
2019-01-18T09:52:09.080Z,30.3
2019-01-18T09:53:09.228Z,15.4
2019-01-18T09:54:09.164Z,9.5
2019-01-18T09:55:09.151Z,21.3
2019-01-18T09:56:09.125Z,12.4
2019-01-18T09:57:09.216Z,21.3
2019-01-18T09:58:09.108Z,18.3
2019-01-18T09:59:09.144Z,1.8
2019-01-18T10:00:09.135Z,9.5
2019-01-18T10:01:09.193Z,1.8
2019-01-18T10:02:09.208Z,12.4
2019-01-18T10:03:09.185Z,9.5
2019-01-18T10:04:09.156Z,9.5
2019-01-18T10:05:09.153Z,12.4
2019-01-18T10:06:09.145Z,3.9
2019-01-18T10:07:09.126Z,6.6
2019-01-18T10:08:09.901Z,6.6
2019-01-18T10:09:09.086Z,1.8
2019-01-18T10:10:09.145Z,6.6
2019-01-18T10:11:09.184Z,6.6
2019-01-18T10:12:09.159Z,15.4
2019-01-18T10:13:09.197Z,3.9
2019-01-18T10:14:09.105Z,18.3
2019-01-18T10:15:09.210Z,15.4
2019-01-18T10:16:09.136Z,9.5
2019-01-18T10:17:09.139Z,21.3
2019-01-18T10:18:09.206Z,15.4
2019-01-18T10:19:09.101Z,30.3
2019-01-18T10:20:09.103Z,30.3
2019-01-18T10:21:09.163Z,21.3
2019-01-18T10:22:09.263Z,24.3
2019-01-18T10:23:09.142Z,21.3
2019-01-18T10:24:09.128Z,33.3
2019-01-18T10:25:09.097Z,30.3
2019-01-18T10:26:09.202Z,24.3
2019-01-18T10:27:09.141Z,21.3
2019-01-18T10:28:09.190Z,15.4
2019-01-18T10:29:09.153Z,30.3
2019-01-18T10:30:09.098Z,24.3
2019-01-18T10:31:09.221Z,15.4
2019-01-18T10:32:09.149Z,27.3
2019-01-18T10:33:09.157Z,15.4
2019-01-18T10:34:09.220Z,27.3
2019-01-18T10:35:09.165Z,24.3
2019-01-18T10:36:09.181Z,30.3
2019-01-18T10:37:09.157Z,18.3
2019-01-18T10:38:09.172Z,21.3
2019-01-18T10:39:09.207Z,36.3
2019-01-18T10:40:09.166Z,21.3
2019-01-18T10:41:09.179Z,39.3
2019-01-18T10:42:09.155Z,21.3
2019-01-18T10:43:09.144Z,27.3
2019-01-18T10:44:09.160Z,33.3
2019-01-18T10:45:09.151Z,30.3
2019-01-18T10:46:09.205Z,21.3
2019-01-18T10:47:09.185Z,24.3
2019-01-18T10:48:09.215Z,27.3
2019-01-18T10:49:09.171Z,36.3
2019-01-18T10:50:09.171Z,27.3
2019-01-18T10:51:09.167Z,39.3
2019-01-18T10:52:09.220Z,18.3
2019-01-18T10:53:09.211Z,30.3
2019-01-18T10:54:09.162Z,18.3
2019-01-18T10:55:09.219Z,27.3
2019-01-18T10:56:09.240Z,3.9
2019-01-18T10:57:09.117Z,18.3
2019-01-18T10:58:09.169Z,21.3
2019-01-18T10:59:09.179Z,15.4
2019-01-18T11:00:09.214Z,3.9
2019-01-18T11:01:09.145Z,21.3
2019-01-18T11:02:09.699Z,24.3
2019-01-18T11:03:10.365Z,15.4
2019-01-18T11:04:09.158Z,27.3
2019-01-18T11:05:09.159Z,27.3
2019-01-18T11:06:09.208Z,27.3
2019-01-18T11:07:09.149Z,36.3
2019-01-18T11:08:09.223Z,33.3
2019-01-18T11:09:09.118Z,24.3
2019-01-18T11:10:09.149Z,36.3
2019-01-18T11:11:09.129Z,27.3
2019-01-18T11:12:09.130Z,42.3
2019-01-18T11:13:09.207Z,33.3
2019-01-18T11:14:09.101Z,24.3
2019-01-18T11:15:09.144Z,24.3
2019-01-18T11:16:09.156Z,39.3
2019-01-18T11:17:09.233Z,21.3
2019-01-18T11:18:09.146Z,24.3
2019-01-18T11:19:09.111Z,24.3
2019-01-18T11:20:09.158Z,18.3
2019-01-18T11:21:09.130Z,24.3
2019-01-18T11:22:09.206Z,21.3
2019-01-18T11:23:09.120Z,24.3
2019-01-18T11:24:09.152Z,30.3
2019-01-18T11:25:09.140Z,15.4
2019-01-18T11:26:09.128Z,30.3
2019-01-18T11:27:09.141Z,18.3
2019-01-18T11:28:09.143Z,24.3
2019-01-18T11:29:09.203Z,21.3
2019-01-18T11:30:09.100Z,30.3
2019-01-18T11:31:09.174Z,21.3
2019-01-18T11:32:14.967Z,33.3
2019-01-18T11:33:09.220Z,27.3
2019-01-18T11:34:09.216Z,27.3
2019-01-18T11:35:09.151Z,27.3
2019-01-18T11:36:09.121Z,24.3
2019-01-18T11:37:09.214Z,30.3
2019-01-18T11:38:09.167Z,24.3
2019-01-18T11:39:09.209Z,21.3
2019-01-18T11:40:09.159Z,15.4
2019-01-18T11:41:09.092Z,27.3
2019-01-18T11:42:09.146Z,24.3
2019-01-18T11:43:09.211Z,27.3
2019-01-18T11:44:09.140Z,21.3
2019-01-18T11:45:09.152Z,21.3
2019-01-18T11:46:09.169Z,18.3
2019-01-18T11:47:09.109Z,21.3
2019-01-18T11:48:12.312Z,21.3
2019-01-18T11:49:09.179Z,9.5
2019-01-18T11:50:09.197Z,3.9
2019-01-18T11:51:09.132Z,18.3
2019-01-18T11:52:09.086Z,24.3
2019-01-18T11:53:09.131Z,24.3
2019-01-18T11:54:09.231Z,9.5
2019-01-18T11:55:09.157Z,18.3
2019-01-18T11:56:09.135Z,21.3
2019-01-18T11:57:09.223Z,15.4
2019-01-18T11:58:09.127Z,21.3
2019-01-18T11:59:09.158Z,12.4
2019-01-18T12:00:09.084Z,15.4
2019-01-18T12:01:09.154Z,18.3
2019-01-18T12:02:14.991Z,15.4
2019-01-18T12:03:09.090Z,18.3
2019-01-18T12:04:09.086Z,18.3
2019-01-18T12:05:09.362Z,3.9
2019-01-18T12:06:09.171Z,18.3
2019-01-18T12:07:09.077Z,0
2019-01-18T12:08:09.125Z,3.9
2019-01-18T12:09:09.149Z,3.9
2019-01-18T12:10:12.707Z,6.6
2019-01-18T12:11:09.082Z,3.9
2019-01-18T12:12:09.159Z,6.6
2019-01-18T12:13:09.112Z,15.4
2019-01-18T12:14:13.708Z,6.6
2019-01-18T12:15:09.194Z,3.9
2019-01-18T12:16:09.143Z,15.4
2019-01-18T12:17:09.224Z,15.4
2019-01-18T12:18:09.180Z,1.8
2019-01-18T12:19:09.135Z,3.9
2019-01-18T12:20:09.316Z,0
2019-01-18T12:21:09.201Z,6.6
2019-01-18T12:22:09.120Z,6.6
2019-01-18T12:23:09.132Z,1.8
2019-01-18T12:24:09.158Z,9.5
2019-01-18T12:25:09.091Z,3.9
2019-01-18T12:26:09.210Z,1.8
2019-01-18T12:27:09.155Z,15.4
2019-01-18T12:28:09.136Z,12.4
2019-01-18T12:29:09.144Z,9.5
2019-01-18T12:30:09.105Z,12.4
2019-01-18T12:31:09.210Z,21.3
2019-01-18T12:32:09.210Z,18.3
2019-01-18T12:33:09.123Z,18.3
2019-01-18T12:34:09.143Z,3.9
2019-01-18T12:35:09.183Z,12.4
2019-01-18T12:36:09.106Z,12.4
2019-01-18T12:37:09.157Z,12.4
2019-01-18T12:38:09.156Z,3.9
2019-01-18T12:39:09.239Z,18.3
2019-01-18T12:40:09.193Z,12.4
2019-01-18T12:41:09.105Z,9.5
2019-01-18T12:42:09.148Z,12.4
2019-01-18T12:43:09.216Z,3.9
2019-01-18T12:44:09.132Z,3.9
2019-01-18T12:45:09.149Z,21.3
2019-01-18T12:46:09.170Z,6.6
2019-01-18T12:47:09.135Z,6.6
2019-01-18T12:48:09.153Z,6.6
2019-01-18T12:49:09.195Z,9.5
2019-01-18T12:50:09.223Z,1.8
2019-01-18T12:51:09.209Z,3.9
2019-01-18T12:52:09.085Z,12.4
2019-01-18T12:53:09.145Z,12.4
2019-01-18T12:54:09.141Z,9.5
2019-01-18T12:55:09.143Z,3.9
2019-01-18T12:56:09.204Z,12.4
2019-01-18T12:57:09.091Z,1.8
2019-01-18T12:58:09.229Z,9.5
2019-01-18T12:59:09.123Z,1.8
2019-01-18T13:00:09.146Z,0
2019-01-18T13:01:09.190Z,9.5
2019-01-18T13:02:09.144Z,3.9
2019-01-18T13:03:09.156Z,6.6
2019-01-18T13:04:10.591Z,6.6
2019-01-18T13:05:09.151Z,1.8
2019-01-18T13:06:09.222Z,6.6
2019-01-18T13:07:09.149Z,18.3
2019-01-18T13:08:09.091Z,0
2019-01-18T13:09:09.123Z,9.5
2019-01-18T13:10:14.466Z,12.4
2019-01-18T13:11:09.225Z,3.9
2019-01-18T13:12:09.154Z,1.8
2019-01-18T13:13:09.126Z,6.6
2019-01-18T13:14:09.105Z,6.6
2019-01-18T13:15:09.126Z,12.4
2019-01-18T13:16:09.242Z,18.3
2019-01-18T13:17:09.134Z,1.8
2019-01-18T13:18:09.127Z,6.6
2019-01-18T13:19:09.079Z,3.9
2019-01-18T13:20:09.122Z,3.9
2019-01-18T13:21:09.201Z,9.5
2019-01-18T13:22:09.194Z,9.5
2019-01-18T13:23:09.154Z,0
2019-01-18T13:24:09.127Z,9.5
2019-01-18T13:25:09.082Z,6.6